createdAt,value
2019-01-09T00:00:52.110Z,996.28
2019-01-09T00:01:52.094Z,996.29
2019-01-09T00:02:50.565Z,996.34
2019-01-09T00:03:52.097Z,996.25
2019-01-09T00:04:52.115Z,996.48
2019-01-09T00:05:52.094Z,996.55
2019-01-09T00:06:52.108Z,996.40
2019-01-09T00:07:52.149Z,996.33
2019-01-09T00:08:52.107Z,996.28
2019-01-09T00:09:52.106Z,996.32
2019-01-09T00:10:52.114Z,996.40
2019-01-09T00:11:52.182Z,996.44
2019-01-09T00:12:52.107Z,996.24
2019-01-09T00:13:52.168Z,996.32
2019-01-09T00:14:52.098Z,996.37
2019-01-09T00:15:52.094Z,996.23
2019-01-09T00:16:52.100Z,996.34
2019-01-09T00:17:52.102Z,996.41
2019-01-09T00:18:52.098Z,996.39
2019-01-09T00:19:52.157Z,996.32
2019-01-09T00:20:53.095Z,996.22
2019-01-09T00:21:52.117Z,996.37
2019-01-09T00:22:52.126Z,996.31
2019-01-09T00:23:52.095Z,996.28
2019-01-09T00:24:52.094Z,996.30
2019-01-09T00:25:52.125Z,996.57
2019-01-09T00:26:53.481Z,996.34
2019-01-09T00:27:52.103Z,996.37
2019-01-09T00:28:52.103Z,996.25
2019-01-09T00:29:52.147Z,996.30
2019-01-09T00:30:52.343Z,996.30
2019-01-09T00:31:50.206Z,996.33
2019-01-09T00:32:52.109Z,996.32
2019-01-09T00:33:52.125Z,996.47
2019-01-09T00:34:52.114Z,996.43
2019-01-09T00:35:52.083Z,996.31
2019-01-09T00:36:52.137Z,996.33
2019-01-09T00:37:52.101Z,996.38
2019-01-09T00:38:52.097Z,996.45
2019-01-09T00:39:52.102Z,996.44
2019-01-09T00:40:52.086Z,996.42
2019-01-09T00:41:51.625Z,996.41
2019-01-09T00:42:51.599Z,996.40
2019-01-09T00:43:51.608Z,996.26
2019-01-09T00:44:51.594Z,996.37
2019-01-09T00:45:51.597Z,996.42
2019-01-09T00:46:51.597Z,996.45
2019-01-09T00:47:51.637Z,996.49
2019-01-09T00:48:51.690Z,996.37
2019-01-09T00:49:51.607Z,996.39
2019-01-09T00:50:51.583Z,996.41
2019-01-09T00:51:51.595Z,996.58
2019-01-09T00:52:51.606Z,996.60
2019-01-09T00:53:51.676Z,996.43
2019-01-09T00:54:51.590Z,996.59
2019-01-09T00:55:51.605Z,996.57
2019-01-09T00:56:51.581Z,996.63
2019-01-09T00:57:51.602Z,996.70
2019-01-09T00:58:51.597Z,996.84
2019-01-09T00:59:51.648Z,996.70
2019-01-09T01:00:51.598Z,996.72
2019-01-09T01:01:51.642Z,996.80
2019-01-09T01:02:51.577Z,996.81
2019-01-09T01:03:51.600Z,996.87
2019-01-09T01:04:51.595Z,996.87
2019-01-09T01:05:51.633Z,996.89
2019-01-09T01:06:50.839Z,996.95
2019-01-09T01:07:51.582Z,996.88
2019-01-09T01:08:51.599Z,996.85
2019-01-09T01:09:51.608Z,996.89
2019-01-09T01:10:51.590Z,996.91
2019-01-09T01:11:51.637Z,996.93
2019-01-09T01:12:51.590Z,997.02
2019-01-09T01:13:51.610Z,996.97
2019-01-09T01:14:51.618Z,996.97
2019-01-09T01:15:51.597Z,996.97
2019-01-09T01:16:51.592Z,997.02
2019-01-09T01:17:51.628Z,997.03
2019-01-09T01:18:50.717Z,997.02
2019-01-09T01:19:51.594Z,997.11
2019-01-09T01:20:51.577Z,997.17
2019-01-09T01:21:51.580Z,997.19
2019-01-09T01:22:51.600Z,997.13
2019-01-09T01:23:51.628Z,997.20
2019-01-09T01:24:49.651Z,997.17
2019-01-09T01:25:51.595Z,997.17
2019-01-09T01:26:51.614Z,997.15
2019-01-09T01:27:51.613Z,997.18
2019-01-09T01:28:51.603Z,997.22
2019-01-09T01:29:50.769Z,997.20
2019-01-09T01:30:51.095Z,997.30
2019-01-09T01:31:52.114Z,997.28
2019-01-09T01:32:51.197Z,997.24
2019-01-09T01:33:51.169Z,997.29
2019-01-09T01:34:51.100Z,997.30
2019-01-09T01:35:54.879Z,997.32
2019-01-09T01:36:51.110Z,997.31
2019-01-09T01:37:51.105Z,997.32
2019-01-09T01:38:51.125Z,997.35
2019-01-09T01:39:51.127Z,997.41
2019-01-09T01:40:51.123Z,997.40
2019-01-09T01:41:51.140Z,997.34
2019-01-09T01:42:51.316Z,997.33
2019-01-09T01:43:51.108Z,997.41
2019-01-09T01:44:51.130Z,997.34
2019-01-09T01:45:51.176Z,997.42
2019-01-09T01:46:51.095Z,997.36
2019-01-09T01:47:51.160Z,997.40
2019-01-09T01:48:51.090Z,997.30
2019-01-09T01:49:51.098Z,997.43
2019-01-09T01:50:51.101Z,997.40
2019-01-09T01:51:51.175Z,997.40
2019-01-09T01:52:51.180Z,997.37
2019-01-09T01:53:51.109Z,997.40
2019-01-09T01:54:51.349Z,997.43
2019-01-09T01:55:51.151Z,997.44
2019-01-09T01:56:51.179Z,997.46
2019-01-09T01:57:50.201Z,997.41
2019-01-09T01:58:51.143Z,997.37
2019-01-09T01:59:51.094Z,997.40
2019-01-09T02:00:51.190Z,997.34
2019-01-09T02:01:51.091Z,997.37
2019-01-09T02:02:51.112Z,997.45
2019-01-09T02:03:51.195Z,997.45
2019-01-09T02:04:51.194Z,997.47
2019-01-09T02:05:51.156Z,997.48
2019-01-09T02:06:51.332Z,997.52
2019-01-09T02:07:51.165Z,997.51
2019-01-09T02:08:51.109Z,997.54
2019-01-09T02:09:51.105Z,997.54
2019-01-09T02:10:51.098Z,997.54
2019-01-09T02:11:51.239Z,997.46
2019-01-09T02:12:51.230Z,997.54
2019-01-09T02:13:51.158Z,997.53
2019-01-09T02:14:51.313Z,997.55
2019-01-09T02:15:51.103Z,997.52
2019-01-09T02:16:51.092Z,997.58
2019-01-09T02:17:50.135Z,997.59
2019-01-09T02:18:50.615Z,997.58
2019-01-09T02:19:50.585Z,997.61
2019-01-09T02:20:50.721Z,997.57
2019-01-09T02:21:50.147Z,997.66
2019-01-09T02:22:50.846Z,997.57
2019-01-09T02:23:51.818Z,997.56
2019-01-09T02:24:50.644Z,997.57
2019-01-09T02:25:49.127Z,997.54
2019-01-09T02:26:49.193Z,997.50
2019-01-09T02:27:50.593Z,997.54
2019-01-09T02:28:50.697Z,997.57
2019-01-09T02:29:49.157Z,997.50
2019-01-09T02:30:51.650Z,997.52
2019-01-09T02:31:51.397Z,997.54
2019-01-09T02:32:49.531Z,997.60
2019-01-09T02:33:51.207Z,997.56
2019-01-09T02:34:50.530Z,997.51
2019-01-09T02:35:49.601Z,997.51
2019-01-09T02:36:52.336Z,997.59
2019-01-09T02:37:51.339Z,997.54
2019-01-09T02:38:51.468Z,997.61
2019-01-09T02:39:51.873Z,997.61
2019-01-09T02:40:53.781Z,997.69
2019-01-09T02:41:49.387Z,997.68
2019-01-09T02:42:58.653Z,997.70
2019-01-09T02:43:50.275Z,997.70
2019-01-09T02:44:52.052Z,997.61
2019-01-09T02:45:51.457Z,997.67
2019-01-09T02:46:50.313Z,997.63
2019-01-09T02:47:50.428Z,997.66
2019-01-09T02:48:50.385Z,997.65
2019-01-09T02:49:50.672Z,997.67
2019-01-09T02:50:52.341Z,997.76
2019-01-09T02:51:50.756Z,997.68
2019-01-09T02:52:50.282Z,997.68
2019-01-09T02:53:50.759Z,997.78
2019-01-09T02:54:50.455Z,997.71
2019-01-09T02:55:52.223Z,997.63
2019-01-09T02:56:53.408Z,997.64
2019-01-09T02:57:56.634Z,997.77
2019-01-09T02:58:51.814Z,997.66
2019-01-09T02:59:50.748Z,997.66
2019-01-09T03:00:49.904Z,997.64
2019-01-09T03:01:49.952Z,997.70
2019-01-09T03:02:51.330Z,997.79
2019-01-09T03:03:52.208Z,997.71
2019-01-09T03:04:50.265Z,997.69
2019-01-09T03:05:52.534Z,997.67
2019-01-09T03:06:48.724Z,997.75
2019-01-09T03:07:56.005Z,997.75
2019-01-09T03:08:50.666Z,997.73
2019-01-09T03:09:52.189Z,997.81
2019-01-09T03:10:48.902Z,997.78
2019-01-09T03:11:51.310Z,997.77
2019-01-09T03:12:50.118Z,997.84
2019-01-09T03:13:49.245Z,997.86
2019-01-09T03:14:49.555Z,997.86
2019-01-09T03:15:49.399Z,998.01
2019-01-09T03:16:48.512Z,997.74
2019-01-09T03:17:51.192Z,997.81
2019-01-09T03:18:50.116Z,997.92
2019-01-09T03:19:54.891Z,997.96
2019-01-09T03:20:53.192Z,998.00
2019-01-09T03:21:48.791Z,998.02
2019-01-09T03:22:50.523Z,997.93
2019-01-09T03:23:50.224Z,997.83
2019-01-09T03:24:48.434Z,997.88
2019-01-09T03:25:50.656Z,997.85
2019-01-09T03:26:50.115Z,997.98
2019-01-09T03:27:48.768Z,998.04
2019-01-09T03:28:50.239Z,997.86
2019-01-09T03:29:49.818Z,998.00
2019-01-09T03:30:50.306Z,997.81
2019-01-09T03:31:50.492Z,997.94
2019-01-09T03:32:50.088Z,997.70
2019-01-09T03:33:50.120Z,997.96
2019-01-09T03:34:50.089Z,997.97
2019-01-09T03:35:50.165Z,997.98
2019-01-09T03:36:50.684Z,997.96
2019-01-09T03:37:50.149Z,997.87
2019-01-09T03:38:50.101Z,998.02
2019-01-09T03:39:49.271Z,997.94
2019-01-09T03:40:50.145Z,997.92
2019-01-09T03:41:50.405Z,997.84
2019-01-09T03:42:50.146Z,997.97
2019-01-09T03:43:50.265Z,998.02
2019-01-09T03:44:50.097Z,997.93
2019-01-09T03:45:50.231Z,997.97
2019-01-09T03:46:50.122Z,997.97
2019-01-09T03:47:50.170Z,997.77
2019-01-09T03:48:50.334Z,997.93
2019-01-09T03:49:50.209Z,997.95
2019-01-09T03:50:49.205Z,998.00
2019-01-09T03:51:50.105Z,998.03
2019-01-09T03:52:50.105Z,998.03
2019-01-09T03:53:49.242Z,998.03
2019-01-09T03:54:50.319Z,998.01
2019-01-09T03:55:50.175Z,997.90
2019-01-09T03:56:49.616Z,997.98
2019-01-09T03:57:49.647Z,997.90
2019-01-09T03:58:48.780Z,997.93
2019-01-09T03:59:49.716Z,997.93
2019-01-09T04:00:49.790Z,997.90
2019-01-09T04:01:49.584Z,997.89
2019-01-09T04:02:49.850Z,998.08
2019-01-09T04:03:50.623Z,997.98
2019-01-09T04:04:48.505Z,997.87
2019-01-09T04:05:51.325Z,997.98
2019-01-09T04:06:49.950Z,997.98
2019-01-09T04:07:49.771Z,998.02
2019-01-09T04:08:49.499Z,998.08
2019-01-09T04:09:48.323Z,998.18
2019-01-09T04:10:48.127Z,998.07
2019-01-09T04:11:49.944Z,998.07
2019-01-09T04:12:49.632Z,998.08
2019-01-09T04:13:50.570Z,998.05
2019-01-09T04:14:51.408Z,998.18
2019-01-09T04:15:54.709Z,998.07
2019-01-09T04:16:49.967Z,998.18
2019-01-09T04:17:49.255Z,998.13
2019-01-09T04:18:49.810Z,998.13
2019-01-09T04:19:49.822Z,998.10
2019-01-09T04:20:49.630Z,998.09
2019-01-09T04:21:51.995Z,998.10
2019-01-09T04:22:49.820Z,998.07
2019-01-09T04:23:50.794Z,998.05
2019-01-09T04:24:48.230Z,998.06
2019-01-09T04:25:49.775Z,998.07
2019-01-09T04:26:48.128Z,998.08
2019-01-09T04:27:51.993Z,998.08
2019-01-09T04:28:48.301Z,998.14
2019-01-09T04:29:49.656Z,998.03
2019-01-09T04:30:49.527Z,997.99
2019-01-09T04:31:49.870Z,998.14
2019-01-09T04:32:49.737Z,998.08
2019-01-09T04:33:49.632Z,998.08
2019-01-09T04:34:49.981Z,998.09
2019-01-09T04:35:51.716Z,998.10
2019-01-09T04:36:52.232Z,998.10
2019-01-09T04:37:51.876Z,998.07
2019-01-09T04:38:48.734Z,998.15
2019-01-09T04:39:49.581Z,998.15
2019-01-09T04:40:50.523Z,998.16
2019-01-09T04:41:49.541Z,998.14
2019-01-09T04:42:49.872Z,998.18
2019-01-09T04:43:49.432Z,998.16
2019-01-09T04:44:49.787Z,998.14
2019-01-09T04:45:49.579Z,998.19
2019-01-09T04:46:47.960Z,998.14
2019-01-09T04:47:49.010Z,998.17
2019-01-09T04:48:48.257Z,998.11
2019-01-09T04:49:49.187Z,998.14
2019-01-09T04:50:51.507Z,998.15
2019-01-09T04:51:47.525Z,998.10
2019-01-09T04:52:49.165Z,998.16
2019-01-09T04:53:49.189Z,998.13
2019-01-09T04:54:49.157Z,998.12
2019-01-09T04:55:49.126Z,998.11
2019-01-09T04:56:49.181Z,998.08
2019-01-09T04:57:49.112Z,998.13
2019-01-09T04:58:49.104Z,998.18
2019-01-09T04:59:49.245Z,998.20
2019-01-09T05:00:49.581Z,998.22
2019-01-09T05:01:49.219Z,998.22
2019-01-09T05:02:49.383Z,998.27
2019-01-09T05:03:47.400Z,998.25
2019-01-09T05:04:49.444Z,998.28
2019-01-09T05:05:49.133Z,998.25
2019-01-09T05:06:49.517Z,998.23
2019-01-09T05:07:49.130Z,998.41
2019-01-09T05:08:49.338Z,998.35
2019-01-09T05:09:47.334Z,998.36
2019-01-09T05:10:49.086Z,998.21
2019-01-09T05:11:49.995Z,998.25
2019-01-09T05:12:49.369Z,998.20
2019-01-09T05:13:49.813Z,998.24
2019-01-09T05:14:49.293Z,998.32
2019-01-09T05:15:47.884Z,998.22
2019-01-09T05:16:49.084Z,998.32
2019-01-09T05:17:49.196Z,998.25
2019-01-09T05:18:49.181Z,998.31
2019-01-09T05:19:49.124Z,998.25
2019-01-09T05:20:49.081Z,998.23
2019-01-09T05:21:47.304Z,998.21
2019-01-09T05:22:49.390Z,998.31
2019-01-09T05:23:49.161Z,998.25
2019-01-09T05:24:48.395Z,998.18
2019-01-09T05:25:49.787Z,998.20
2019-01-09T05:26:49.442Z,998.16
2019-01-09T05:27:49.113Z,998.13
2019-01-09T05:28:49.238Z,998.14
2019-01-09T05:29:49.246Z,998.27
2019-01-09T05:30:49.476Z,998.26
2019-01-09T05:31:48.303Z,998.26
2019-01-09T05:32:48.908Z,998.28
2019-01-09T05:33:48.664Z,998.36
2019-01-09T05:34:48.789Z,998.42
2019-01-09T05:35:48.789Z,998.35
2019-01-09T05:36:48.595Z,998.39
2019-01-09T05:37:48.650Z,998.36
2019-01-09T05:38:48.621Z,998.22
2019-01-09T05:39:48.708Z,998.30
2019-01-09T05:40:48.634Z,998.24
2019-01-09T05:41:48.810Z,998.13
2019-01-09T05:42:48.693Z,998.15
2019-01-09T05:43:48.742Z,998.15
2019-01-09T05:44:48.799Z,998.19
2019-01-09T05:45:47.115Z,998.22
2019-01-09T05:46:48.614Z,998.28
2019-01-09T05:47:48.622Z,998.33
2019-01-09T05:48:48.609Z,998.23
2019-01-09T05:49:48.758Z,998.30
2019-01-09T05:50:48.587Z,998.27
2019-01-09T05:51:48.097Z,998.40
2019-01-09T05:52:49.828Z,998.31
2019-01-09T05:53:48.477Z,998.34
2019-01-09T05:54:48.722Z,998.28
2019-01-09T05:55:48.594Z,998.30
2019-01-09T05:56:47.725Z,998.27
2019-01-09T05:57:48.567Z,998.37
2019-01-09T05:58:48.578Z,998.30
2019-01-09T05:59:47.900Z,998.31
2019-01-09T06:00:48.729Z,998.40
2019-01-09T06:01:48.732Z,998.32
2019-01-09T06:02:46.787Z,998.32
2019-01-09T06:03:48.649Z,998.45
2019-01-09T06:04:49.483Z,998.38
2019-01-09T06:05:48.887Z,998.38
2019-01-09T06:06:48.687Z,998.40
2019-01-09T06:07:49.707Z,998.40
2019-01-09T06:08:48.746Z,998.35
2019-01-09T06:09:48.720Z,998.40
2019-01-09T06:10:48.805Z,998.41
2019-01-09T06:11:50.927Z,998.46
2019-01-09T06:12:48.728Z,998.43
2019-01-09T06:13:49.103Z,998.47
2019-01-09T06:14:50.003Z,998.38
2019-01-09T06:15:48.668Z,998.48
2019-01-09T06:16:48.636Z,998.58
2019-01-09T06:17:48.629Z,998.55
2019-01-09T06:18:48.745Z,998.49
2019-01-09T06:19:48.694Z,998.47
2019-01-09T06:20:48.718Z,998.49
2019-01-09T06:21:48.142Z,998.47
2019-01-09T06:22:48.155Z,998.51
2019-01-09T06:23:48.314Z,998.48
2019-01-09T06:24:47.117Z,998.48
2019-01-09T06:25:48.396Z,998.50
2019-01-09T06:26:48.250Z,998.43
2019-01-09T06:27:48.851Z,998.43
2019-01-09T06:28:46.508Z,998.40
2019-01-09T06:29:48.348Z,998.47
2019-01-09T06:30:48.155Z,998.54
2019-01-09T06:31:48.161Z,998.49
2019-01-09T06:32:48.514Z,998.56
2019-01-09T06:33:48.325Z,998.53
2019-01-09T06:34:48.063Z,998.61
2019-01-09T06:35:48.382Z,998.65
2019-01-09T06:36:48.105Z,998.65
2019-01-09T06:37:46.419Z,998.63
2019-01-09T06:38:48.088Z,998.63
2019-01-09T06:39:49.105Z,998.64
2019-01-09T06:40:48.974Z,998.72
2019-01-09T06:41:48.513Z,998.70
2019-01-09T06:42:48.226Z,998.76
2019-01-09T06:43:46.944Z,998.77
2019-01-09T06:44:49.365Z,998.81
2019-01-09T06:45:48.063Z,998.73
2019-01-09T06:46:48.091Z,998.74
2019-01-09T06:47:48.190Z,998.76
2019-01-09T06:48:48.542Z,998.83
2019-01-09T06:49:46.394Z,998.88
2019-01-09T06:50:48.126Z,998.90
2019-01-09T06:51:48.472Z,998.95
2019-01-09T06:52:48.077Z,998.91
2019-01-09T06:53:48.064Z,998.92
2019-01-09T06:54:48.096Z,998.93
2019-01-09T06:55:48.243Z,998.89
2019-01-09T06:56:48.125Z,998.91
2019-01-09T06:57:48.063Z,998.94
2019-01-09T06:58:48.122Z,998.97
2019-01-09T06:59:48.047Z,998.97
2019-01-09T07:00:48.066Z,998.95
2019-01-09T07:01:48.936Z,998.95
2019-01-09T07:02:48.309Z,998.99
2019-01-09T07:03:48.456Z,998.93
2019-01-09T07:04:48.134Z,999.02
2019-01-09T07:05:47.465Z,998.96
2019-01-09T07:06:48.950Z,999.00
2019-01-09T07:07:52.432Z,999.05
2019-01-09T07:08:50.103Z,999.06
2019-01-09T07:09:47.862Z,999.07
2019-01-09T07:10:47.609Z,999.03
2019-01-09T07:11:46.413Z,999.12
2019-01-09T07:12:47.572Z,999.04
2019-01-09T07:13:47.596Z,999.15
2019-01-09T07:14:47.272Z,999.14
2019-01-09T07:15:47.586Z,999.19
2019-01-09T07:16:46.958Z,999.13
2019-01-09T07:17:48.275Z,999.24
2019-01-09T07:18:46.254Z,999.25
2019-01-09T07:19:48.565Z,999.25
2019-01-09T07:20:47.672Z,999.23
2019-01-09T07:21:47.684Z,999.28
2019-01-09T07:22:47.577Z,999.20
2019-01-09T07:23:48.117Z,999.21
2019-01-09T07:24:45.920Z,999.24
2019-01-09T07:25:47.660Z,999.25
2019-01-09T07:26:47.671Z,999.29
2019-01-09T07:27:47.585Z,999.29
2019-01-09T07:28:47.626Z,999.29
2019-01-09T07:29:47.606Z,999.26
2019-01-09T07:30:47.564Z,999.20
2019-01-09T07:31:47.613Z,999.33
2019-01-09T07:32:48.291Z,999.28
2019-01-09T07:33:47.592Z,999.34
2019-01-09T07:34:48.130Z,999.35
2019-01-09T07:35:47.598Z,999.37
2019-01-09T07:36:46.952Z,999.42
2019-01-09T07:37:47.589Z,999.31
2019-01-09T07:38:47.700Z,999.33
2019-01-09T07:39:47.715Z,999.35
2019-01-09T07:40:47.629Z,999.33
2019-01-09T07:41:47.772Z,999.33
2019-01-09T07:42:47.599Z,999.39
2019-01-09T07:43:47.576Z,999.41
2019-01-09T07:44:46.722Z,999.37
2019-01-09T07:45:47.561Z,999.46
2019-01-09T07:46:48.141Z,999.59
2019-01-09T07:47:47.575Z,999.42
2019-01-09T07:48:47.565Z,999.46
2019-01-09T07:49:48.449Z,999.45
2019-01-09T07:50:47.631Z,999.44
2019-01-09T07:51:47.578Z,999.54
2019-01-09T07:52:47.574Z,999.48
2019-01-09T07:53:47.661Z,999.51
2019-01-09T07:54:47.894Z,999.51
2019-01-09T07:55:47.564Z,999.42
2019-01-09T07:56:47.565Z,999.47
2019-01-09T07:57:47.556Z,999.44
2019-01-09T07:58:47.077Z,999.46
2019-01-09T07:59:47.046Z,999.50
2019-01-09T08:00:47.060Z,999.48
2019-01-09T08:01:47.041Z,999.57
2019-01-09T08:02:47.042Z,999.53
2019-01-09T08:03:47.062Z,999.54
2019-01-09T08:04:47.083Z,999.54
2019-01-09T08:05:45.469Z,999.54
2019-01-09T08:07:17.338Z,999.61
2019-01-09T08:08:19.129Z,999.52
2019-01-09T08:09:19.145Z,999.59
2019-01-09T08:10:19.124Z,999.58
2019-01-09T08:11:19.108Z,999.64
2019-01-09T08:12:19.139Z,999.65
2019-01-09T08:13:19.105Z,999.64
2019-01-09T08:14:19.118Z,999.68
2019-01-09T08:15:19.104Z,999.65
2019-01-09T08:16:19.115Z,999.62
2019-01-09T08:17:19.145Z,999.63
2019-01-09T08:18:20.133Z,999.66
2019-01-09T08:19:19.155Z,999.75
2019-01-09T08:20:19.114Z,999.64
2019-01-09T08:21:19.148Z,999.73
2019-01-09T08:22:19.108Z,999.72
2019-01-09T08:23:19.124Z,999.76
2019-01-09T08:24:19.120Z,999.77
2019-01-09T08:25:17.257Z,999.77
2019-01-09T08:26:19.108Z,999.77
2019-01-09T08:27:19.105Z,999.80
2019-01-09T08:28:18.645Z,999.79
2019-01-09T08:29:18.238Z,999.79
2019-01-09T08:30:18.603Z,999.82
2019-01-09T08:31:18.664Z,999.78
2019-01-09T08:32:18.664Z,999.84
2019-01-09T08:33:18.592Z,999.86
2019-01-09T08:34:18.680Z,999.85
2019-01-09T08:35:18.596Z,999.99
2019-01-09T08:36:18.661Z,999.94
2019-01-09T08:37:18.621Z,999.93
2019-01-09T08:38:18.596Z,999.92
2019-01-09T08:39:18.613Z,999.97
2019-01-09T08:40:18.616Z,999.92
2019-01-09T08:41:16.992Z,999.98
2019-01-09T08:42:18.637Z,999.99
2019-01-09T08:43:18.605Z,999.98
2019-01-09T08:44:18.695Z,999.95
2019-01-09T08:45:18.676Z,1000.00
2019-01-09T08:46:18.611Z,999.95
2019-01-09T08:47:16.910Z,1000.02
2019-01-09T08:48:18.624Z,1000.01
2019-01-09T08:49:18.982Z,999.95
2019-01-09T08:50:18.616Z,999.97
2019-01-09T08:51:18.604Z,1000.03
2019-01-09T08:52:18.592Z,1000.04
2019-01-09T08:53:16.847Z,1000.07
2019-01-09T08:54:18.613Z,1000.06
2019-01-09T08:55:18.626Z,1000.02
2019-01-09T08:56:18.750Z,1000.07
2019-01-09T08:57:18.593Z,1000.06
2019-01-09T08:58:18.602Z,1000.11
2019-01-09T08:59:18.606Z,1000.05
2019-01-09T09:00:18.611Z,1000.13
2019-01-09T09:01:18.606Z,1000.09
2019-01-09T09:02:18.622Z,1000.17
2019-01-09T09:03:18.588Z,1000.21
2019-01-09T09:04:18.602Z,1000.15
2019-01-09T09:05:18.606Z,1000.14
2019-01-09T09:06:18.607Z,1000.24
2019-01-09T09:07:18.626Z,1000.15
2019-01-09T09:08:18.610Z,1000.18
2019-01-09T09:09:18.601Z,1000.17
2019-01-09T09:10:18.608Z,1000.22
2019-01-09T09:11:18.601Z,1000.24
2019-01-09T09:12:18.601Z,1000.22
2019-01-09T09:13:18.624Z,1000.20
2019-01-09T09:14:18.588Z,1000.26
2019-01-09T09:15:18.608Z,1000.21
2019-01-09T09:16:18.601Z,1000.28
2019-01-09T09:17:18.098Z,1000.26
2019-01-09T09:18:18.098Z,1000.25
2019-01-09T09:19:18.534Z,1000.28
2019-01-09T09:20:18.103Z,1000.27
2019-01-09T09:21:18.099Z,1000.35
2019-01-09T09:22:18.097Z,1000.35
2019-01-09T09:23:18.104Z,1000.32
2019-01-09T09:24:18.101Z,1000.29
2019-01-09T09:25:18.396Z,1000.31
2019-01-09T09:26:18.211Z,1000.33
2019-01-09T09:27:18.088Z,1000.36
2019-01-09T09:28:18.123Z,1000.40
2019-01-09T09:29:18.100Z,1000.39
2019-01-09T09:30:18.107Z,1000.44
2019-01-09T09:31:18.123Z,1000.43
2019-01-09T09:32:18.104Z,1000.48
2019-01-09T09:33:18.097Z,1000.45
2019-01-09T09:34:17.333Z,1000.56
2019-01-09T09:35:18.099Z,1000.46
2019-01-09T09:36:18.098Z,1000.52
2019-01-09T09:37:19.098Z,1000.43
2019-01-09T09:38:20.754Z,1000.51
2019-01-09T09:39:18.106Z,1000.56
2019-01-09T09:40:16.398Z,1000.55
2019-01-09T09:41:18.099Z,1000.56
2019-01-09T09:42:18.099Z,1000.59
2019-01-09T09:43:18.113Z,1000.45
2019-01-09T09:44:18.098Z,1000.60
2019-01-09T09:45:18.105Z,1000.61
2019-01-09T09:46:18.099Z,1000.59
2019-01-09T09:47:18.095Z,1000.67
2019-01-09T09:48:18.102Z,1000.67
2019-01-09T09:49:18.100Z,1000.57
2019-01-09T09:50:18.104Z,1000.67
2019-01-09T09:51:18.098Z,1000.58
2019-01-09T09:52:18.101Z,1000.72
2019-01-09T09:53:18.095Z,1000.77
2019-01-09T09:54:18.110Z,1000.76
2019-01-09T09:55:18.121Z,1000.76
2019-01-09T09:56:18.098Z,1000.78
2019-01-09T09:57:18.104Z,1000.84
2019-01-09T09:58:18.094Z,1000.74
2019-01-09T09:59:18.098Z,1000.79
2019-01-09T10:00:18.106Z,1000.78
2019-01-09T10:01:18.112Z,1000.77
2019-01-09T10:02:18.269Z,1000.51
2019-01-09T10:03:18.099Z,1000.89
2019-01-09T10:04:18.096Z,1000.86
2019-01-09T10:05:18.134Z,1000.73
2019-01-09T10:06:17.603Z,1000.71
2019-01-09T10:07:17.609Z,1000.74
2019-01-09T10:08:17.584Z,1000.54
2019-01-09T10:09:17.583Z,1000.77
2019-01-09T10:10:17.617Z,1000.80
2019-01-09T10:11:17.595Z,1000.78
2019-01-09T10:12:17.595Z,1000.75
2019-01-09T10:13:17.610Z,1000.73
2019-01-09T10:14:17.596Z,1000.86
2019-01-09T10:15:17.609Z,1000.75
2019-01-09T10:16:18.642Z,1000.78
2019-01-09T10:17:17.597Z,1000.78
2019-01-09T10:18:17.593Z,1000.81
2019-01-09T10:19:17.620Z,1000.80
2019-01-09T10:20:17.599Z,1000.84
2019-01-09T10:21:15.941Z,1000.72
2019-01-09T10:22:17.601Z,1000.83
2019-01-09T10:23:17.594Z,1000.92
2019-01-09T10:24:17.622Z,1000.55
2019-01-09T10:25:17.685Z,1000.89
2019-01-09T10:26:17.617Z,1000.80
2019-01-09T10:27:15.904Z,1000.86
2019-01-09T10:28:17.619Z,1000.65
2019-01-09T10:29:17.626Z,1000.89
2019-01-09T10:30:17.629Z,1000.81
2019-01-09T10:31:17.659Z,1001.00
2019-01-09T10:32:17.607Z,1000.90
2019-01-09T10:33:17.601Z,1000.79
2019-01-09T10:34:17.613Z,1000.87
2019-01-09T10:35:17.611Z,1000.93
2019-01-09T10:36:17.593Z,1000.89
2019-01-09T10:37:17.594Z,1000.87
2019-01-09T10:38:17.593Z,1000.92
2019-01-09T10:39:17.580Z,1000.81
2019-01-09T10:40:17.599Z,1000.86
2019-01-09T10:41:17.590Z,1000.62
2019-01-09T10:42:17.593Z,1000.80
2019-01-09T10:43:17.608Z,1000.89
2019-01-09T10:44:18.893Z,1000.82
2019-01-09T10:45:17.601Z,1000.92
2019-01-09T10:46:17.580Z,1000.82
2019-01-09T10:47:17.581Z,1000.44
2019-01-09T10:48:17.594Z,1000.89
2019-01-09T10:49:17.606Z,1000.83
2019-01-09T10:50:17.593Z,1000.93
2019-01-09T10:51:17.594Z,1000.88
2019-01-09T10:52:17.594Z,1000.76
2019-01-09T10:53:17.596Z,1000.82
2019-01-09T10:54:17.591Z,1001.01
2019-01-09T10:55:17.609Z,1000.67
2019-01-09T10:56:17.097Z,1000.79
2019-01-09T10:57:17.114Z,1000.86
2019-01-09T10:58:17.231Z,1000.78
2019-01-09T10:59:17.079Z,1000.89
2019-01-09T11:00:17.103Z,1000.89
2019-01-09T11:01:17.139Z,1000.85
2019-01-09T11:02:15.517Z,1000.80
2019-01-09T11:03:17.103Z,1000.83
2019-01-09T11:04:17.079Z,1000.96
2019-01-09T11:05:17.089Z,1000.96
2019-01-09T11:06:17.096Z,1000.85
2019-01-09T11:07:17.129Z,1000.65
2019-01-09T11:08:17.079Z,1000.93
2019-01-09T11:09:17.079Z,1000.74
2019-01-09T11:10:17.090Z,1000.85
2019-01-09T11:11:17.098Z,1000.86
2019-01-09T11:12:17.088Z,1000.87
2019-01-09T11:13:17.106Z,1000.85
2019-01-09T11:14:17.078Z,1000.91
2019-01-09T11:15:17.090Z,1000.94
2019-01-09T11:16:17.096Z,1000.94
2019-01-09T11:17:17.090Z,1000.86
2019-01-09T11:18:17.101Z,1000.79
2019-01-09T11:19:17.108Z,1000.93
2019-01-09T11:20:17.091Z,1000.89
2019-01-09T11:21:17.093Z,1000.88
2019-01-09T11:22:17.096Z,1000.87
2019-01-09T11:23:17.078Z,1000.73
2019-01-09T11:24:17.090Z,1000.77
2019-01-09T11:25:15.308Z,1000.84
2019-01-09T11:26:17.098Z,1000.92
2019-01-09T11:27:17.088Z,1000.93
2019-01-09T11:28:17.087Z,1000.80
2019-01-09T11:29:17.087Z,1000.83
2019-01-09T11:30:17.092Z,1000.96
2019-01-09T11:31:15.273Z,1001.02
2019-01-09T11:32:17.089Z,1000.93
2019-01-09T11:33:17.077Z,1000.86
2019-01-09T11:34:17.089Z,1000.99
2019-01-09T11:35:17.090Z,1000.94
2019-01-09T11:36:17.091Z,1001.17
2019-01-09T11:37:17.105Z,1000.96
2019-01-09T11:38:17.097Z,1001.15
2019-01-09T11:39:17.090Z,1001.20
2019-01-09T11:40:17.077Z,1000.87
2019-01-09T11:41:17.091Z,1001.06
2019-01-09T11:42:17.120Z,1000.92
2019-01-09T11:43:16.613Z,1001.06
2019-01-09T11:44:16.598Z,1001.15
2019-01-09T11:45:16.687Z,1000.97
2019-01-09T11:46:16.596Z,1001.05
2019-01-09T11:47:16.584Z,1000.96
2019-01-09T11:48:16.599Z,1000.72
2019-01-09T11:49:16.657Z,1000.86
2019-01-09T11:50:16.607Z,1000.87
2019-01-09T11:51:16.592Z,1000.87
2019-01-09T11:52:16.591Z,1000.96
2019-01-09T11:53:16.604Z,1000.69
2019-01-09T11:54:16.042Z,1000.99
2019-01-09T11:55:16.588Z,1000.92
2019-01-09T11:56:16.614Z,1000.98
2019-01-09T11:57:16.584Z,1001.00
2019-01-09T11:58:16.597Z,1000.90
2019-01-09T11:59:16.589Z,1000.75
2019-01-09T12:00:14.919Z,1000.83
2019-01-09T12:01:16.596Z,1000.63
2019-01-09T12:02:21.971Z,1000.81
2019-01-09T12:03:17.587Z,1000.97
2019-01-09T12:04:16.585Z,1000.93
2019-01-09T12:05:16.616Z,1001.20
2019-01-09T12:06:16.767Z,1000.83
2019-01-09T12:07:16.588Z,1000.80
2019-01-09T12:08:16.628Z,1000.82
2019-01-09T12:09:17.594Z,1000.98
2019-01-09T12:10:16.594Z,1001.08
2019-01-09T12:11:16.607Z,1000.80
2019-01-09T12:12:16.588Z,1001.00
2019-01-09T12:13:16.615Z,1001.12
2019-01-09T12:14:16.585Z,1001.03
2019-01-09T12:15:16.620Z,1001.01
2019-01-09T12:16:16.607Z,1001.10
2019-01-09T12:17:14.764Z,1001.05
2019-01-09T12:18:16.614Z,1000.92
2019-01-09T12:19:16.598Z,1000.91
2019-01-09T12:20:16.587Z,1001.02
2019-01-09T12:22:15.699Z,1000.85
2019-01-09T12:23:16.623Z,1000.98